sensor_id;sensor_type;location;lat;lon;timestamp;temperature;humidity
2100;DHT22;1055;48.854;9.302;2022-10-16T00:01:57;16.80;99.90
2100;DHT22;1055;48.854;9.302;2022-10-16T00:04:23;16.80;99.90
2100;DHT22;1055;48.854;9.302;2022-10-16T00:06:48;16.90;99.90
2100;DHT22;1055;48.854;9.302;2022-10-16T00:09:14;16.70;99.90
2100;DHT22;1055;48.854;9.302;2022-10-16T00:11:40;16.60;99.90
2100;DHT22;1055;48.854;9.302;2022-10-16T00:14:12;16.70;99.90
2100;DHT22;1055;48.854;9.302;2022-10-16T00:16:38;16.80;99.90
2100;DHT22;1055;48.854;9.302;2022-10-16T00:19:04;16.90;99.90
2100;DHT22;1055;48.854;9.302;2022-10-16T00:21:30;17.20;99.90
2100;DHT22;1055;48.854;9.302;2022-10-16T00:24:05;17.30;99.90
2100;DHT22;1055;48.854;9.302;2022-10-16T00:26:33;17.40;99.90
2100;DHT22;1055;48.854;9.302;2022-10-16T00:28:59;17.50;99.90
2100;DHT22;1055;48.854;9.302;2022-10-16T00:31:25;17.60;99.90
2100;DHT22;1055;48.854;9.302;2022-10-16T00:33:51;17.60;99.90
2100;DHT22;1055;48.854;9.302;2022-10-16T00:36:19;17.70;99.90
2100;DHT22;1055;48.854;9.302;2022-10-16T00:38:45;17.50;99.90
2100;DHT22;1055;48.854;9.302;2022-10-16T00:41:14;17.50;99.90
2100;DHT22;1055;48.854;9.302;2022-10-16T00:46:29;17.40;99.90
2100;DHT22;1055;48.854;9.302;2022-10-16T00:51:39;17.30;99.90
2100;DHT22;1055;48.854;9.302;2022-10-16T00:54:12;17.50;99.90
2100;DHT22;1055;48.854;9.302;2022-10-16T00:56:39;17.50;99.90
2100;DHT22;1055;48.854;9.302;2022-10-16T00:59:07;17.50;99.90
2100;DHT22;1055;48.854;9.302;2022-10-16T01:01:36;17.60;99.90
2100;DHT22;1055;48.854;9.302;2022-10-16T01:04:02;17.60;99.90
2100;DHT22;1055;48.854;9.302;2022-10-16T01:09:02;17.60;99.90
2100;DHT22;1055;48.854;9.302;2022-10-16T01:25:15;17.50;99.90
2100;DHT22;1055;48.854;9.302;2022-10-16T01:27:43;17.50;99.90
2100;DHT22;1055;48.854;9.302;2022-10-16T01:30:21;17.40;99.90
2100;DHT22;1055;48.854;9.302;2022-10-16T01:33:03;17.50;99.90
2100;DHT22;1055;48.854;9.302;2022-10-16T01:35:45;17.40;99.90
2100;DHT22;1055;48.854;9.302;2022-10-16T01:38:23;17.30;99.90
2100;DHT22;1055;48.854;9.302;2022-10-16T01:40:55;17.30;99.90
2100;DHT22;1055;48.854;9.302;2022-10-16T01:43:43;17.30;99.90
2100;DHT22;1055;48.854;9.302;2022-10-16T01:46:10;17.20;99.90
2100;DHT22;1055;48.854;9.302;2022-10-16T01:48:38;17.30;99.90
2100;DHT22;1055;48.854;9.302;2022-10-16T01:51:08;17.30;99.90
2100;DHT22;1055;48.854;9.302;2022-10-16T01:53:36;17.30;99.90
2100;DHT22;1055;48.854;9.302;2022-10-16T01:56:04;17.30;99.90
2100;DHT22;1055;48.854;9.302;2022-10-16T01:58:35;17.30;99.90
2100;DHT22;1055;48.854;9.302;2022-10-16T02:01:02;17.20;99.90
2100;DHT22;1055;48.854;9.302;2022-10-16T02:03:29;17.30;99.90
2100;DHT22;1055;48.854;9.302;2022-10-16T02:05:56;17.30;99.90
2100;DHT22;1055;48.854;9.302;2022-10-16T02:08:24;17.40;99.90
2100;DHT22;1055;48.854;9.302;2022-10-16T02:10:55;17.40;99.90
2100;DHT22;1055;48.854;9.302;2022-10-16T02:13:42;17.40;99.90
2100;DHT22;1055;48.854;9.302;2022-10-16T02:16:11;17.30;99.90
2100;DHT22;1055;48.854;9.302;2022-10-16T02:18:37;17.00;99.90
2100;DHT22;1055;48.854;9.302;2022-10-16T02:21:23;17.00;99.90
2100;DHT22;1055;48.854;9.302;2022-10-16T02:27:06;17.00;99.90
2100;DHT22;1055;48.854;9.302;2022-10-16T02:29:42;17.20;99.90
2100;DHT22;1055;48.854;9.302;2022-10-16T02:32:10;17.30;99.90
2100;DHT22;1055;48.854;9.302;2022-10-16T02:34:39;17.30;99.90
2100;DHT22;1055;48.854;9.302;2022-10-16T02:37:06;17.30;99.90
2100;DHT22;1055;48.854;9.302;2022-10-16T02:39:33;17.30;99.90
2100;DHT22;1055;48.854;9.302;2022-10-16T02:41:59;17.30;99.90
2100;DHT22;1055;48.854;9.302;2022-10-16T02:44:24;17.10;99.90
2100;DHT22;1055;48.854;9.302;2022-10-16T02:46:50;17.20;99.90
2100;DHT22;1055;48.854;9.302;2022-10-16T02:49:15;17.30;99.90
2100;DHT22;1055;48.854;9.302;2022-10-16T02:51:41;17.30;99.90
2100;DHT22;1055;48.854;9.302;2022-10-16T02:54:07;17.30;99.90
2100;DHT22;1055;48.854;9.302;2022-10-16T02:56:32;17.40;99.90
2100;DHT22;1055;48.854;9.302;2022-10-16T02:58:58;17.40;99.90
2100;DHT22;1055;48.854;9.302;2022-10-16T03:01:24;17.30;99.90
2100;DHT22;1055;48.854;9.302;2022-10-16T03:03:50;17.30;99.90
2100;DHT22;1055;48.854;9.302;2022-10-16T03:06:15;17.40;99.90
2100;DHT22;1055;48.854;9.302;2022-10-16T03:08:42;17.30;99.90
2100;DHT22;1055;48.854;9.302;2022-10-16T03:11:09;17.30;99.90
2100;DHT22;1055;48.854;9.302;2022-10-16T03:13:35;17.30;99.90
2100;DHT22;1055;48.854;9.302;2022-10-16T03:16:00;16.80;99.90
2100;DHT22;1055;48.854;9.302;2022-10-16T03:18:26;16.70;99.90
2100;DHT22;1055;48.854;9.302;2022-10-16T03:20:51;16.50;99.90
2100;DHT22;1055;48.854;9.302;2022-10-16T03:23:17;16.70;99.90
2100;DHT22;1055;48.854;9.302;2022-10-16T03:25:42;16.90;99.90
2100;DHT22;1055;48.854;9.302;2022-10-16T03:28:08;17.00;99.90
2100;DHT22;1055;48.854;9.302;2022-10-16T03:30:34;16.90;99.90
2100;DHT22;1055;48.854;9.302;2022-10-16T03:33:00;16.60;99.90
2100;DHT22;1055;48.854;9.302;2022-10-16T03:35:25;16.50;99.90
2100;DHT22;1055;48.854;9.302;2022-10-16T03:37:51;16.40;99.90
2100;DHT22;1055;48.854;9.302;2022-10-16T03:40:17;16.50;99.90
2100;DHT22;1055;48.854;9.302;2022-10-16T03:42:43;16.40;99.90
2100;DHT22;1055;48.854;9.302;2022-10-16T03:45:10;16.60;99.90
2100;DHT22;1055;48.854;9.302;2022-10-16T03:47:35;16.60;99.90
2100;DHT22;1055;48.854;9.302;2022-10-16T03:50:01;16.50;99.90
2100;DHT22;1055;48.854;9.302;2022-10-16T03:52:27;16.40;99.90
2100;DHT22;1055;48.854;9.302;2022-10-16T03:54:52;16.60;99.90
2100;DHT22;1055;48.854;9.302;2022-10-16T03:57:18;16.70;99.90
2100;DHT22;1055;48.854;9.302;2022-10-16T03:59:43;16.80;99.90
2100;DHT22;1055;48.854;9.302;2022-10-16T04:02:09;16.90;99.90
2100;DHT22;1055;48.854;9.302;2022-10-16T04:04:35;16.90;99.90
2100;DHT22;1055;48.854;9.302;2022-10-16T04:07:01;16.90;99.90
2100;DHT22;1055;48.854;9.302;2022-10-16T04:09:26;16.90;99.90
2100;DHT22;1055;48.854;9.302;2022-10-16T04:11:52;16.40;99.90
2100;DHT22;1055;48.854;9.302;2022-10-16T04:14:18;16.10;99.90
2100;DHT22;1055;48.854;9.302;2022-10-16T04:16:43;15.90;99.90
2100;DHT22;1055;48.854;9.302;2022-10-16T04:19:10;15.90;99.90
2100;DHT22;1055;48.854;9.302;2022-10-16T04:21:36;15.70;99.90
2100;DHT22;1055;48.854;9.302;2022-10-16T04:24:01;15.70;99.90
2100;DHT22;1055;48.854;9.302;2022-10-16T04:26:27;15.80;99.90
2100;DHT22;1055;48.854;9.302;2022-10-16T04:28:53;16.10;99.90
2100;DHT22;1055;48.854;9.302;2022-10-16T04:31:19;16.20;99.90
2100;DHT22;1055;48.854;9.302;2022-10-16T04:33:45;16.30;99.90
2100;DHT22;1055;48.854;9.302;2022-10-16T04:36:10;16.30;99.90
2100;DHT22;1055;48.854;9.302;2022-10-16T04:38:36;16.40;99.90
2100;DHT22;1055;48.854;9.302;2022-10-16T04:41:03;16.50;99.90
2100;DHT22;1055;48.854;9.302;2022-10-16T04:43:29;16.50;99.90
2100;DHT22;1055;48.854;9.302;2022-10-16T04:45:54;16.50;99.90
2100;DHT22;1055;48.854;9.302;2022-10-16T04:48:20;16.50;99.90
2100;DHT22;1055;48.854;9.302;2022-10-16T04:50:46;16.40;99.90
2100;DHT22;1055;48.854;9.302;2022-10-16T04:53:11;16.40;99.90
2100;DHT22;1055;48.854;9.302;2022-10-16T04:55:37;16.30;99.90
2100;DHT22;1055;48.854;9.302;2022-10-16T04:58:04;16.40;99.90
2100;DHT22;1055;48.854;9.302;2022-10-16T05:00:29;16.40;99.90
2100;DHT22;1055;48.854;9.302;2022-10-16T05:02:55;16.40;99.90
2100;DHT22;1055;48.854;9.302;2022-10-16T05:05:21;16.50;99.90
2100;DHT22;1055;48.854;9.302;2022-10-16T05:07:47;16.30;99.90
2100;DHT22;1055;48.854;9.302;2022-10-16T05:10:13;16.40;99.90
2100;DHT22;1055;48.854;9.302;2022-10-16T05:12:38;16.40;99.90
2100;DHT22;1055;48.854;9.302;2022-10-16T05:15:05;16.50;99.90
2100;DHT22;1055;48.854;9.302;2022-10-16T05:17:30;16.50;99.90
2100;DHT22;1055;48.854;9.302;2022-10-16T05:19:56;16.60;99.90
2100;DHT22;1055;48.854;9.302;2022-10-16T05:22:22;16.60;99.90
2100;DHT22;1055;48.854;9.302;2022-10-16T05:24:47;16.70;99.90
2100;DHT22;1055;48.854;9.302;2022-10-16T05:27:13;16.60;99.90
2100;DHT22;1055;48.854;9.302;2022-10-16T05:29:48;16.50;99.90
2100;DHT22;1055;48.854;9.302;2022-10-16T05:32:15;16.40;99.90
2100;DHT22;1055;48.854;9.302;2022-10-16T05:34:41;16.50;99.90
2100;DHT22;1055;48.854;9.302;2022-10-16T05:37:07;16.50;99.90
2100;DHT22;1055;48.854;9.302;2022-10-16T05:39:33;16.30;99.90
2100;DHT22;1055;48.854;9.302;2022-10-16T05:41:58;16.30;99.90
2100;DHT22;1055;48.854;9.302;2022-10-16T05:44:24;16.20;99.90
2100;DHT22;1055;48.854;9.302;2022-10-16T05:46:49;16.10;99.90
2100;DHT22;1055;48.854;9.302;2022-10-16T05:49:15;16.20;99.90
2100;DHT22;1055;48.854;9.302;2022-10-16T05:51:41;16.30;99.90
2100;DHT22;1055;48.854;9.302;2022-10-16T05:54:07;16.30;99.90
2100;DHT22;1055;48.854;9.302;2022-10-16T05:56:33;16.30;99.90
2100;DHT22;1055;48.854;9.302;2022-10-16T05:58:58;16.30;99.90
2100;DHT22;1055;48.854;9.302;2022-10-16T06:01:24;16.40;99.90
2100;DHT22;1055;48.854;9.302;2022-10-16T06:03:51;16.40;99.90
2100;DHT22;1055;48.854;9.302;2022-10-16T06:06:23;16.40;99.90
2100;DHT22;1055;48.854;9.302;2022-10-16T06:08:49;16.50;99.90
2100;DHT22;1055;48.854;9.302;2022-10-16T06:11:17;16.50;99.90
2100;DHT22;1055;48.854;9.302;2022-10-16T06:13:43;16.50;99.90
2100;DHT22;1055;48.854;9.302;2022-10-16T06:16:11;16.50;99.90
2100;DHT22;1055;48.854;9.302;2022-10-16T06:18:38;16.50;99.90
2100;DHT22;1055;48.854;9.302;2022-10-16T06:21:24;16.40;99.90
2100;DHT22;1055;48.854;9.302;2022-10-16T06:23:50;16.30;99.90
2100;DHT22;1055;48.854;9.302;2022-10-16T06:26:18;16.30;99.90
2100;DHT22;1055;48.854;9.302;2022-10-16T06:28:44;15.90;99.90
2100;DHT22;1055;48.854;9.302;2022-10-16T06:31:11;15.80;99.90
2100;DHT22;1055;48.854;9.302;2022-10-16T06:33:38;15.80;99.90
2100;DHT22;1055;48.854;9.302;2022-10-16T06:36:09;15.70;99.90
2100;DHT22;1055;48.854;9.302;2022-10-16T06:38:35;15.60;99.90
2100;DHT22;1055;48.854;9.302;2022-10-16T06:41:01;15.50;99.90
2100;DHT22;1055;48.854;9.302;2022-10-16T06:43:29;15.40;99.90
2100;DHT22;1055;48.854;9.302;2022-10-16T06:45:58;15.60;99.90
2100;DHT22;1055;48.854;9.302;2022-10-16T06:48:25;15.70;99.90
2100;DHT22;1055;48.854;9.302;2022-10-16T06:51:05;15.80;99.90
2100;DHT22;1055;48.854;9.302;2022-10-16T06:53:33;15.90;99.90
2100;DHT22;1055;48.854;9.302;2022-10-16T06:56:10;16.00;99.90
2100;DHT22;1055;48.854;9.302;2022-10-16T06:58:36;15.60;99.90
2100;DHT22;1055;48.854;9.302;2022-10-16T07:01:02;15.70;99.90
2100;DHT22;1055;48.854;9.302;2022-10-16T07:03:28;15.40;99.90
2100;DHT22;1055;48.854;9.302;2022-10-16T07:05:54;15.40;99.90
2100;DHT22;1055;48.854;9.302;2022-10-16T07:08:19;15.30;99.90
2100;DHT22;1055;48.854;9.302;2022-10-16T07:11:06;15.40;99.90
2100;DHT22;1055;48.854;9.302;2022-10-16T07:13:38;15.50;99.90
2100;DHT22;1055;48.854;9.302;2022-10-16T07:16:09;15.50;99.90
2100;DHT22;1055;48.854;9.302;2022-10-16T07:18:35;15.70;99.90
2100;DHT22;1055;48.854;9.302;2022-10-16T07:21:10;15.70;99.90
2100;DHT22;1055;48.854;9.302;2022-10-16T07:23:37;15.60;99.90
2100;DHT22;1055;48.854;9.302;2022-10-16T07:26:04;15.90;99.90
2100;DHT22;1055;48.854;9.302;2022-10-16T07:28:32;16.10;99.90
2100;DHT22;1055;48.854;9.302;2022-10-16T07:31:06;16.30;99.90
2100;DHT22;1055;48.854;9.302;2022-10-16T07:33:33;16.20;99.90
2100;DHT22;1055;48.854;9.302;2022-10-16T07:36:01;16.30;99.90
2100;DHT22;1055;48.854;9.302;2022-10-16T07:38:27;16.30;99.90
2100;DHT22;1055;48.854;9.302;2022-10-16T07:41:00;16.60;99.90
2100;DHT22;1055;48.854;9.302;2022-10-16T07:43:27;16.70;99.90
2100;DHT22;1055;48.854;9.302;2022-10-16T07:45:55;16.80;99.90
2100;DHT22;1055;48.854;9.302;2022-10-16T07:48:21;16.60;99.90
2100;DHT22;1055;48.854;9.302;2022-10-16T07:50:47;16.80;99.90
2100;DHT22;1055;48.854;9.302;2022-10-16T07:53:16;16.80;99.90
2100;DHT22;1055;48.854;9.302;2022-10-16T07:55:41;16.90;99.90
2100;DHT22;1055;48.854;9.302;2022-10-16T07:58:08;16.90;99.90
2100;DHT22;1055;48.854;9.302;2022-10-16T08:00:35;16.80;99.90
2100;DHT22;1055;48.854;9.302;2022-10-16T08:03:01;16.50;99.90
2100;DHT22;1055;48.854;9.302;2022-10-16T08:05:31;16.20;99.90
2100;DHT22;1055;48.854;9.302;2022-10-16T08:07:57;16.10;99.90
2100;DHT22;1055;48.854;9.302;2022-10-16T08:10:24;16.20;99.90
2100;DHT22;1055;48.854;9.302;2022-10-16T08:12:51;16.20;99.90
2100;DHT22;1055;48.854;9.302;2022-10-16T08:15:17;16.30;99.90
2100;DHT22;1055;48.854;9.302;2022-10-16T08:17:43;16.40;99.90
2100;DHT22;1055;48.854;9.302;2022-10-16T08:20:10;16.50;99.90
2100;DHT22;1055;48.854;9.302;2022-10-16T08:22:35;16.60;99.90
2100;DHT22;1055;48.854;9.302;2022-10-16T08:25:01;16.70;99.90
2100;DHT22;1055;48.854;9.302;2022-10-16T08:27:35;16.90;99.90
2100;DHT22;1055;48.854;9.302;2022-10-16T08:30:01;17.00;99.90
2100;DHT22;1055;48.854;9.302;2022-10-16T08:32:27;17.20;99.90
2100;DHT22;1055;48.854;9.302;2022-10-16T08:34:53;17.00;99.90
2100;DHT22;1055;48.854;9.302;2022-10-16T08:37:19;17.00;99.90
2100;DHT22;1055;48.854;9.302;2022-10-16T08:39:44;16.90;99.90
2100;DHT22;1055;48.854;9.302;2022-10-16T08:42:21;17.00;99.90
2100;DHT22;1055;48.854;9.302;2022-10-16T08:45:33;17.10;99.90
2100;DHT22;1055;48.854;9.302;2022-10-16T08:50:23;17.40;99.90
2100;DHT22;1055;48.854;9.302;2022-10-16T08:52:50;17.50;99.90
2100;DHT22;1055;48.854;9.302;2022-10-16T08:55:31;17.50;99.90
2100;DHT22;1055;48.854;9.302;2022-10-16T08:57:59;17.70;99.90
2100;DHT22;1055;48.854;9.302;2022-10-16T09:00:26;17.70;99.90
2100;DHT22;1055;48.854;9.302;2022-10-16T09:02:53;17.80;99.90
2100;DHT22;1055;48.854;9.302;2022-10-16T09:05:38;18.00;99.90
2100;DHT22;1055;48.854;9.302;2022-10-16T09:08:16;18.10;99.90
2100;DHT22;1055;48.854;9.302;2022-10-16T09:21:28;18.00;99.90
2100;DHT22;1055;48.854;9.302;2022-10-16T09:24:06;18.10;99.90
2100;DHT22;1055;48.854;9.302;2022-10-16T09:26:33;18.20;99.90
2100;DHT22;1055;48.854;9.302;2022-10-16T09:28:59;18.30;99.90
2100;DHT22;1055;48.854;9.302;2022-10-16T09:31:25;18.50;99.90
2100;DHT22;1055;48.854;9.302;2022-10-16T09:33:55;18.60;99.90
2100;DHT22;1055;48.854;9.302;2022-10-16T09:36:23;18.60;99.90
2100;DHT22;1055;48.854;9.302;2022-10-16T09:39:04;18.70;99.90
2100;DHT22;1055;48.854;9.302;2022-10-16T09:41:33;18.80;99.90
2100;DHT22;1055;48.854;9.302;2022-10-16T09:44:01;18.90;99.90
2100;DHT22;1055;48.854;9.302;2022-10-16T09:46:32;18.90;99.90
2100;DHT22;1055;48.854;9.302;2022-10-16T09:49:01;19.10;99.90
2100;DHT22;1055;48.854;9.302;2022-10-16T09:51:32;19.20;99.90
2100;DHT22;1055;48.854;9.302;2022-10-16T09:54:02;19.30;99.90
2100;DHT22;1055;48.854;9.302;2022-10-16T09:56:33;19.20;99.90
2100;DHT22;1055;48.854;9.302;2022-10-16T09:59:10;19.10;99.90
2100;DHT22;1055;48.854;9.302;2022-10-16T10:01:39;19.20;99.90
2100;DHT22;1055;48.854;9.302;2022-10-16T10:04:06;19.40;99.90
2100;DHT22;1055;48.854;9.302;2022-10-16T10:06:49;19.50;99.90
2100;DHT22;1055;48.854;9.302;2022-10-16T10:09:30;19.60;99.90
2100;DHT22;1055;48.854;9.302;2022-10-16T10:11:58;19.80;99.90
2100;DHT22;1055;48.854;9.302;2022-10-16T10:17:15;20.20;99.90
2100;DHT22;1055;48.854;9.302;2022-10-16T10:32:56;20.50;99.90
2100;DHT22;1055;48.854;9.302;2022-10-16T10:35:44;20.60;99.90
2100;DHT22;1055;48.854;9.302;2022-10-16T10:38:20;20.70;99.90
2100;DHT22;1055;48.854;9.302;2022-10-16T10:43:40;20.90;99.90
2100;DHT22;1055;48.854;9.302;2022-10-16T10:46:34;21.00;99.90
2100;DHT22;1055;48.854;9.302;2022-10-16T10:49:16;21.10;99.90
2100;DHT22;1055;48.854;9.302;2022-10-16T10:55:23;21.20;99.90
2100;DHT22;1055;48.854;9.302;2022-10-16T10:58:24;21.50;99.90
2100;DHT22;1055;48.854;9.302;2022-10-16T11:01:04;21.40;99.90
2100;DHT22;1055;48.854;9.302;2022-10-16T11:06:40;21.60;99.90
2100;DHT22;1055;48.854;9.302;2022-10-16T11:09:39;21.60;99.90
2100;DHT22;1055;48.854;9.302;2022-10-16T11:12:13;21.70;99.90
2100;DHT22;1055;48.854;9.302;2022-10-16T11:14:50;21.70;99.90
2100;DHT22;1055;48.854;9.302;2022-10-16T11:19:57;21.90;99.90
2100;DHT22;1055;48.854;9.302;2022-10-16T11:22:39;21.90;99.90
2100;DHT22;1055;48.854;9.302;2022-10-16T11:27:53;21.90;99.90
2100;DHT22;1055;48.854;9.302;2022-10-16T11:30:27;22.00;99.90
2100;DHT22;1055;48.854;9.302;2022-10-16T11:33:03;22.10;99.90
2100;DHT22;1055;48.854;9.302;2022-10-16T11:41:47;22.40;99.90
2100;DHT22;1055;48.854;9.302;2022-10-16T11:44:38;22.60;99.90
2100;DHT22;1055;48.854;9.302;2022-10-16T11:49:55;22.80;99.90
2100;DHT22;1055;48.854;9.302;2022-10-16T11:52:33;22.90;99.90
2100;DHT22;1055;48.854;9.302;2022-10-16T11:55:14;23.20;99.90
2100;DHT22;1055;48.854;9.302;2022-10-16T11:57:44;23.40;99.90
2100;DHT22;1055;48.854;9.302;2022-10-16T12:00:46;23.40;99.90
2100;DHT22;1055;48.854;9.302;2022-10-16T12:08:16;23.50;99.90
2100;DHT22;1055;48.854;9.302;2022-10-16T12:10:45;23.80;99.90
2100;DHT22;1055;48.854;9.302;2022-10-16T12:16:07;24.00;99.90
2100;DHT22;1055;48.854;9.302;2022-10-16T12:18:45;23.90;99.90
2100;DHT22;1055;48.854;9.302;2022-10-16T12:21:13;24.00;99.90
2100;DHT22;1055;48.854;9.302;2022-10-16T12:23:51;24.10;99.90
2100;DHT22;1055;48.854;9.302;2022-10-16T12:26:29;24.40;99.90
2100;DHT22;1055;48.854;9.302;2022-10-16T12:29:08;24.70;99.90
2100;DHT22;1055;48.854;9.302;2022-10-16T12:31:38;25.00;99.90
2100;DHT22;1055;48.854;9.302;2022-10-16T12:34:39;25.10;99.90
2100;DHT22;1055;48.854;9.302;2022-10-16T12:37:28;25.00;99.90
2100;DHT22;1055;48.854;9.302;2022-10-16T12:39:55;25.10;99.90
2100;DHT22;1055;48.854;9.302;2022-10-16T12:44:53;24.90;99.90
2100;DHT22;1055;48.854;9.302;2022-10-16T12:49:57;24.60;99.90
2100;DHT22;1055;48.854;9.302;2022-10-16T12:52:31;24.40;99.90
2100;DHT22;1055;48.854;9.302;2022-10-16T12:55:00;24.60;99.90
2100;DHT22;1055;48.854;9.302;2022-10-16T13:00:17;25.30;99.90
2100;DHT22;1055;48.854;9.302;2022-10-16T13:17:09;25.90;99.90
2100;DHT22;1055;48.854;9.302;2022-10-16T13:25:31;25.50;99.90
2100;DHT22;1055;48.854;9.302;2022-10-16T13:28:08;25.20;99.90
2100;DHT22;1055;48.854;9.302;2022-10-16T13:30:42;24.70;99.90
2100;DHT22;1055;48.854;9.302;2022-10-16T13:33:24;25.10;99.90
2100;DHT22;1055;48.854;9.302;2022-10-16T13:35:55;25.30;99.90
2100;DHT22;1055;48.854;9.302;2022-10-16T13:38:24;25.50;99.90
2100;DHT22;1055;48.854;9.302;2022-10-16T13:43:17;25.10;99.90
2100;DHT22;1055;48.854;9.302;2022-10-16T13:45:53;25.30;99.90
2100;DHT22;1055;48.854;9.302;2022-10-16T13:48:19;24.90;99.90
2100;DHT22;1055;48.854;9.302;2022-10-16T13:50:44;24.90;99.90
2100;DHT22;1055;48.854;9.302;2022-10-16T13:53:14;24.90;99.90
2100;DHT22;1055;48.854;9.302;2022-10-16T13:55:40;24.90;99.90
2100;DHT22;1055;48.854;9.302;2022-10-16T13:58:12;24.50;99.90
2100;DHT22;1055;48.854;9.302;2022-10-16T14:00:38;24.90;99.90
2100;DHT22;1055;48.854;9.302;2022-10-16T14:03:11;24.90;99.90
2100;DHT22;1055;48.854;9.302;2022-10-16T14:05:48;25.00;99.90
2100;DHT22;1055;48.854;9.302;2022-10-16T14:08:14;24.90;99.90
2100;DHT22;1055;48.854;9.302;2022-10-16T14:10:40;24.90;99.90
2100;DHT22;1055;48.854;9.302;2022-10-16T14:13:07;25.20;99.90
2100;DHT22;1055;48.854;9.302;2022-10-16T14:15:38;25.40;99.90
2100;DHT22;1055;48.854;9.302;2022-10-16T14:18:04;25.00;99.90
2100;DHT22;1055;48.854;9.302;2022-10-16T14:20:32;25.00;99.90
2100;DHT22;1055;48.854;9.302;2022-10-16T14:23:23;25.10;99.90
2100;DHT22;1055;48.854;9.302;2022-10-16T14:25:49;25.20;99.90
2100;DHT22;1055;48.854;9.302;2022-10-16T14:28:22;25.10;99.90
2100;DHT22;1055;48.854;9.302;2022-10-16T14:30:54;25.20;99.90
2100;DHT22;1055;48.854;9.302;2022-10-16T14:33:31;25.30;99.90
2100;DHT22;1055;48.854;9.302;2022-10-16T14:38:38;24.90;99.90
2100;DHT22;1055;48.854;9.302;2022-10-16T14:41:04;24.90;99.90
2100;DHT22;1055;48.854;9.302;2022-10-16T14:43:34;24.80;99.90
2100;DHT22;1055;48.854;9.302;2022-10-16T14:46:02;24.80;99.90
2100;DHT22;1055;48.854;9.302;2022-10-16T14:48:29;24.80;99.90
2100;DHT22;1055;48.854;9.302;2022-10-16T14:50:55;24.90;99.90
2100;DHT22;1055;48.854;9.302;2022-10-16T14:53:20;25.00;99.90
2100;DHT22;1055;48.854;9.302;2022-10-16T14:55:46;25.00;99.90
2100;DHT22;1055;48.854;9.302;2022-10-16T14:58:16;24.90;99.90
2100;DHT22;1055;48.854;9.302;2022-10-16T15:00:42;25.00;99.90
2100;DHT22;1055;48.854;9.302;2022-10-16T15:03:08;25.10;99.90
2100;DHT22;1055;48.854;9.302;2022-10-16T15:05:34;25.10;99.90
2100;DHT22;1055;48.854;9.302;2022-10-16T15:07:59;25.10;99.90
2100;DHT22;1055;48.854;9.302;2022-10-16T15:10:27;25.00;99.90
2100;DHT22;1055;48.854;9.302;2022-10-16T15:12:54;25.00;99.90
2100;DHT22;1055;48.854;9.302;2022-10-16T15:17:52;25.00;99.90
2100;DHT22;1055;48.854;9.302;2022-10-16T15:20:21;25.00;99.90
2100;DHT22;1055;48.854;9.302;2022-10-16T15:22:47;25.00;99.90
2100;DHT22;1055;48.854;9.302;2022-10-16T15:27:50;25.00;99.90
2100;DHT22;1055;48.854;9.302;2022-10-16T15:30:15;25.10;99.90
2100;DHT22;1055;48.854;9.302;2022-10-16T15:32:41;25.10;99.90
2100;DHT22;1055;48.854;9.302;2022-10-16T15:35:09;25.00;99.90
2100;DHT22;1055;48.854;9.302;2022-10-16T15:37:34;25.00;99.90
2100;DHT22;1055;48.854;9.302;2022-10-16T15:40:00;24.80;99.90
2100;DHT22;1055;48.854;9.302;2022-10-16T15:42:25;24.50;99.90
2100;DHT22;1055;48.854;9.302;2022-10-16T15:44:51;24.50;99.90
2100;DHT22;1055;48.854;9.302;2022-10-16T15:47:17;24.50;99.90
2100;DHT22;1055;48.854;9.302;2022-10-16T15:49:42;24.60;99.90
2100;DHT22;1055;48.854;9.302;2022-10-16T15:52:08;24.50;99.90
2100;DHT22;1055;48.854;9.302;2022-10-16T15:54:33;24.60;99.90
2100;DHT22;1055;48.854;9.302;2022-10-16T15:56:59;24.30;99.90
2100;DHT22;1055;48.854;9.302;2022-10-16T15:59:25;24.10;99.90
2100;DHT22;1055;48.854;9.302;2022-10-16T16:01:50;24.20;99.90
2100;DHT22;1055;48.854;9.302;2022-10-16T16:04:16;24.10;99.90
2100;DHT22;1055;48.854;9.302;2022-10-16T16:06:42;24.10;99.90
2100;DHT22;1055;48.854;9.302;2022-10-16T16:09:10;24.00;99.90
2100;DHT22;1055;48.854;9.302;2022-10-16T16:11:37;24.00;99.90
2100;DHT22;1055;48.854;9.302;2022-10-16T16:14:05;24.10;99.90
2100;DHT22;1055;48.854;9.302;2022-10-16T16:16:31;24.20;99.90
2100;DHT22;1055;48.854;9.302;2022-10-16T16:19:02;24.10;99.90
2100;DHT22;1055;48.854;9.302;2022-10-16T16:21:28;24.10;99.90
2100;DHT22;1055;48.854;9.302;2022-10-16T16:23:54;24.00;99.90
2100;DHT22;1055;48.854;9.302;2022-10-16T16:26:24;24.10;99.90
2100;DHT22;1055;48.854;9.302;2022-10-16T16:28:53;24.00;99.90
2100;DHT22;1055;48.854;9.302;2022-10-16T16:31:20;23.50;99.90
2100;DHT22;1055;48.854;9.302;2022-10-16T16:33:48;23.00;99.90
2100;DHT22;1055;48.854;9.302;2022-10-16T16:36:14;22.20;99.90
2100;DHT22;1055;48.854;9.302;2022-10-16T16:38:40;21.40;99.90
2100;DHT22;1055;48.854;9.302;2022-10-16T16:41:17;21.40;99.90
2100;DHT22;1055;48.854;9.302;2022-10-16T16:43:43;21.70;99.90
2100;DHT22;1055;48.854;9.302;2022-10-16T16:46:09;21.60;99.90
2100;DHT22;1055;48.854;9.302;2022-10-16T16:48:35;21.80;99.90
2100;DHT22;1055;48.854;9.302;2022-10-16T16:51:09;22.00;99.90
2100;DHT22;1055;48.854;9.302;2022-10-16T16:53:36;22.10;99.90
2100;DHT22;1055;48.854;9.302;2022-10-16T16:56:04;22.30;99.90
2100;DHT22;1055;48.854;9.302;2022-10-16T16:58:30;22.30;99.90
2100;DHT22;1055;48.854;9.302;2022-10-16T17:00:56;22.30;99.90
2100;DHT22;1055;48.854;9.302;2022-10-16T17:03:26;22.40;99.90
2100;DHT22;1055;48.854;9.302;2022-10-16T17:05:57;22.20;99.90
2100;DHT22;1055;48.854;9.302;2022-10-16T17:08:22;22.30;99.90
2100;DHT22;1055;48.854;9.302;2022-10-16T17:10:48;22.30;99.90
2100;DHT22;1055;48.854;9.302;2022-10-16T17:13:18;22.30;99.90
2100;DHT22;1055;48.854;9.302;2022-10-16T17:15:48;22.20;99.90
2100;DHT22;1055;48.854;9.302;2022-10-16T17:18:14;22.20;99.90
2100;DHT22;1055;48.854;9.302;2022-10-16T17:20:40;22.10;99.90
2100;DHT22;1055;48.854;9.302;2022-10-16T17:23:07;22.00;99.90
2100;DHT22;1055;48.854;9.302;2022-10-16T17:25:36;22.00;99.90
2100;DHT22;1055;48.854;9.302;2022-10-16T17:28:03;21.90;99.90
2100;DHT22;1055;48.854;9.302;2022-10-16T17:30:29;21.70;99.90
2100;DHT22;1055;48.854;9.302;2022-10-16T17:32:54;21.70;99.90
2100;DHT22;1055;48.854;9.302;2022-10-16T17:35:20;21.70;99.90
2100;DHT22;1055;48.854;9.302;2022-10-16T17:37:46;21.70;99.90
2100;DHT22;1055;48.854;9.302;2022-10-16T17:40:11;21.30;99.90
2100;DHT22;1055;48.854;9.302;2022-10-16T17:42:37;21.00;99.90
2100;DHT22;1055;48.854;9.302;2022-10-16T17:45:03;21.10;99.90
2100;DHT22;1055;48.854;9.302;2022-10-16T17:47:29;21.20;99.90
2100;DHT22;1055;48.854;9.302;2022-10-16T17:49:55;21.20;99.90
2100;DHT22;1055;48.854;9.302;2022-10-16T17:52:21;21.20;99.90
2100;DHT22;1055;48.854;9.302;2022-10-16T17:54:50;21.20;99.90
2100;DHT22;1055;48.854;9.302;2022-10-16T17:57:17;20.90;99.90
2100;DHT22;1055;48.854;9.302;2022-10-16T17:59:42;20.60;99.90
2100;DHT22;1055;48.854;9.302;2022-10-16T18:02:11;20.50;99.90
2100;DHT22;1055;48.854;9.302;2022-10-16T18:04:36;20.20;99.90
2100;DHT22;1055;48.854;9.302;2022-10-16T18:07:03;19.90;99.90
2100;DHT22;1055;48.854;9.302;2022-10-16T18:09:28;20.20;99.90
2100;DHT22;1055;48.854;9.302;2022-10-16T18:11:54;20.40;99.90
2100;DHT22;1055;48.854;9.302;2022-10-16T18:14:28;20.40;99.90
2100;DHT22;1055;48.854;9.302;2022-10-16T18:16:55;20.50;99.90
2100;DHT22;1055;48.854;9.302;2022-10-16T18:19:22;20.50;99.90